Akeley, MN (56433)

8:32 AM CST on February 28, 2017 (GMT -0600)
Williams Lake | | Change Station

Elev 1394 ft 46.95 °N, 94.66 °W | Updated 2 seconds ago

Overcast
Overcast
24.1 °F
Feels Like 19 °F
N
4.3
Wind Variable Wind from North
Gusts 4.9 mph

Today
High -- | Low -- °F
--% Chance of Precip.
Yesterday
High -- | Low -- °F
Precip. -- in
Pressure 29.79 in
Visibility 10.0 miles
Clouds Mostly Cloudy 1100 ft
Windchill 19 °F
Dew Point 17 °F
Humidity 75%
Rainfall 0.00 in
Snow Depth Not available.
7:00 AM 6:03 PM
Waxing Crescent, 5% visible
SPECI KPKD 281404Z AUTO 04004KT 10SM BKN011 M05/M09 A2979 RMK AO2 T10501089
Pressure 29.79 in
Visibility 10.0 miles
Clouds Mostly Cloudy 1100 ft
Windchill 19 °F
Dew Point 17 °F
Humidity 75%
Rainfall 0.00 in
Snow Depth Not available.
7:00 AM 6:03 PM
Waxing Crescent, 5% visible
SPECI KPKD 281404Z AUTO 04004KT 10SM BKN011 M05/M09 A2979 RMK AO2 T10501089

Get Your Daily Forecast Email!

Thanks for signing up!

Be on the lookout for a verification email in your inbox.

You'll start receiving the daily forecast at 8 AM.

×

10-Day Weather Forecast

Almanac

Astronomy

Feb. 28, 2017 Rise Set
Actual Time
Civil Twilight
Nautical Twilight
Astronomical Twilight
Moon
Length of Visible Light
Length of Day
Tomorrow will be .
, % of the Moon is Illuminated

Today's Extremes

State Highs State Lows

Community

WunderPhotos

Upload Photos

1,962,540 photos uploaded!

WunderBlog® & News

Nearby

Air Quality

  Air Quality AQ Index Pollutant
Not available.

Snow Depth

Station Depth Elevation

Earthquake Activity

City Distance Mag. Time & Date
Minimum magnitude displayed is 2.5.

Coastal Water Temperatures

Place Temperature

Stations

Nearby Weather Stations

Station Location Temp. Windchill Dew Point Humidity Wind Precip. Elev Updated Type
                   

Watches & Warnings

There are currently no watches in effect.